Time;durP1;ratioP1;P1;durP2;ratioP2;P2;SDS_P1;SDS_P2;PMS_P1;PMS_P2;Temp;Humidity;BMP_temperature;BMP_pressure;BME280_temperature;BME280_humidity;BME280_pressure;Samples;Min_cycle;Max_cycle;Signal;HPM_P1;HPM_P2
2023/01/05 00:00:23;;;;;;;;;;;;;;;3.99;100.00;93320.31;5071010;28;19920;-82
2023/01/05 00:02:49;;;;;;;;;;;;;;;4.00;100.00;93317.47;5097608;28;19927;-81
2023/01/05 00:05:14;;;;;;;;;;;;;;;3.99;100.00;93315.91;5098320;28;19922;-81
2023/01/05 00:07:40;;;;;;;;;;;;;;;3.94;100.00;93297.66;5098343;28;19916;-82
2023/01/05 00:22:29;;;;;;;;;;;;;;;4.00;100.00;93311.50;5096804;28;19912;-82
2023/01/05 00:23:51;;;;;;;;;;;;;;;4.02;100.00;93291.34;5094416;28;19941;-83
2023/01/05 00:26:17;;;;;;;;;;;;;;;4.04;100.00;93291.91;5064219;28;19920;-82
2023/01/05 00:28:42;;;;;;;;;;;;;;;4.04;100.00;93292.69;5094824;28;19982;-83
2023/01/05 00:31:08;;;;;;;;;;;;;;;4.03;100.00;93298.09;5079263;28;19916;-82
2023/01/05 00:33:34;;;;;;;;;;;;;;;4.03;100.00;93290.31;5095219;28;19919;-82
2023/01/05 00:35:59;;;;;;;;;;;;;;;4.02;100.00;93284.38;5096840;28;19927;-83
2023/01/05 00:38:25;;;;;;;;;;;;;;;4.03;100.00;93285.16;5096515;28;19924;-83
2023/01/05 00:40:50;;;;;;;;;;;;;;;4.03;100.00;93279.97;5096145;28;19912;-83
2023/01/05 00:43:15;;;;;;;;;;;;;;;4.04;100.00;93282.34;5077759;28;19916;-80
2023/01/05 00:45:41;;;;;;;;;;;;;;;4.05;100.00;93273.53;5058255;28;19912;-80
2023/01/05 00:48:06;;;;;;;;;;;;;;;4.06;100.00;93269.94;5077270;28;20060;-80
2023/01/05 00:50:32;;;;;;;;;;;;;;;4.07;100.00;93265.56;5077503;28;20404;-80
2023/01/05 00:52:59;;;;;;;;;;;;;;;4.07;100.00;93262.97;5094629;28;19927;-80
2023/01/05 00:55:25;;;;;;;;;;;;;;;4.07;100.00;93265.56;5095099;28;19916;-80
2023/01/05 00:57:50;;;;;;;;;;;;;;;4.07;100.00;93266.34;5095148;28;19915;-81
2023/01/05 01:00:18;;;;;;;;;;;;;;;4.06;100.00;93267.34;5089565;28;20208;-80
2023/01/05 01:02:43;;;;;;;;;;;;;;;4.06;100.00;93271.75;5092815;28;20278;-80
2023/01/05 01:05:09;;;;;;;;;;;;;;;4.06;100.00;93266.56;5072552;28;19916;-80
2023/01/05 01:07:35;;;;;;;;;;;;;;;4.05;100.00;93272.75;5091731;28;20032;-79
2023/01/05 01:10:03;;;;;;;;;;;;;;;4.04;100.00;93277.16;5076669;28;20350;-80
2023/01/05 01:12:29;;;;;;;;;;;;;;;4.04;100.00;93284.94;5095042;28;19912;-80
2023/01/05 01:14:55;;;;;;;;;;;;;;;4.06;100.00;93279.53;5070118;28;19943;-81
2023/01/05 01:17:21;;;;;;;;;;;;;;;4.07;100.00;93281.09;5061969;28;19951;-80
2023/01/05 01:19:46;;;;;;;;;;;;;;;4.08;100.00;93277.50;5056801;28;19920;-80
2023/01/05 01:22:12;;;;;;;;;;;;;;;4.09;100.00;93279.06;5100480;28;19951;-80
2023/01/05 01:24:38;;;;;;;;;;;;;;;4.09;100.00;93277.25;5106897;28;19912;-80
2023/01/05 01:27:03;;;;;;;;;;;;;;;4.11;100.00;93277.03;5097155;28;20015;-80
2023/01/05 01:29:29;;;;;;;;;;;;;;;4.13;100.00;93272.44;5061417;28;19951;-80
2023/01/05 01:31:54;;;;;;;;;;;;;;;4.14;100.00;93279.97;5078495;28;19912;-80
2023/01/05 01:34:20;;;;;;;;;;;;;;;4.16;100.00;93277.16;5078221;28;19927;-80
2023/01/05 01:36:46;;;;;;;;;;;;;;;4.15;100.00;93270.41;5092041;28;19935;-80
2023/01/05 01:39:12;;;;;;;;;;;;;;;4.14;100.00;93271.41;5054984;28;19927;-81
2023/01/05 01:41:40;;;;;;;;;;;;;;;4.14;100.00;93274.00;5069307;28;19939;-81
2023/01/05 01:44:25;;;;;;;;;;;;;;;4.12;100.00;93269.06;5061778;28;19924;-81
2023/01/05 01:46:50;;;;;;;;;;;;;;;4.14;100.00;93266.22;5094023;28;19926;-81
2023/01/05 01:49:16;;;;;;;;;;;;;;;4.13;100.00;93259.47;5058726;28;19968;-80
2023/01/05 01:51:43;;;;;;;;;;;;;;;4.14;100.00;93258.44;5096228;28;19916;-80
2023/01/05 01:54:12;;;;;;;;;;;;;;;4.14;100.00;93261.84;5077404;28;19916;-80
2023/01/05 01:56:40;;;;;;;;;;;;;;;4.13;100.00;93249.88;5076930;28;19947;-80
2023/01/05 01:59:06;;;;;;;;;;;;;;;4.16;100.00;93256.41;5074851;28;19987;-81
2023/01/05 02:01:31;;;;;;;;;;;;;;;4.16;100.00;93254.59;5066179;28;19951;-80
2023/01/05 02:03:59;;;;;;;;;;;;;;;4.17;100.00;93245.03;5094365;28;19920;-80
2023/01/05 02:06:24;;;;;;;;;;;;;;;4.17;100.00;93238.06;5077031;28;20331;-80
2023/01/05 02:08:51;;;;;;;;;;;;;;;4.16;100.00;93233.88;5077059;28;19916;-81
2023/01/05 02:11:36;;;;;;;;;;;;;;;4.17;100.00;93232.09;5077095;28;20310;-80
2023/01/05 02:14:21;;;;;;;;;;;;;;;4.16;100.00;93225.31;5075818;28;20391;-81
2023/01/05 02:16:47;;;;;;;;;;;;;;;4.17;100.00;93226.91;5076654;28;19916;-81
2023/01/05 02:19:32;;;;;;;;;;;;;;;4.17;100.00;93219.13;5086207;28;19916;-80
2023/01/05 02:22:16;;;;;;;;;;;;;;;4.17;100.00;93219.13;5094919;28;19911;-81
2023/01/05 02:24:45;;;;;;;;;;;;;;;4.18;100.00;93215.50;5076595;28;19912;-80
2023/01/05 02:27:14;;;;;;;;;;;;;;;4.17;100.00;93219.91;5077042;28;19908;-81
2023/01/05 02:29:46;;;;;;;;;;;;;;;4.18;100.00;93207.75;5092921;28;20628;-81
2023/01/05 02:32:14;;;;;;;;;;;;;;;4.18;100.00;93211.09;5089204;28;20354;-81
2023/01/05 02:34:50;;;;;;;;;;;;;;;4.19;100.00;93198.97;5075963;28;19919;-81
2023/01/05 02:37:25;;;;;;;;;;;;;;;4.20;100.00;93205.72;5076512;28;19966;-81
2023/01/05 02:39:56;;;;;;;;;;;;;;;4.20;100.00;93203.13;5076055;28;20157;-81
2023/01/05 02:42:23;;;;;;;;;;;;;;;4.18;100.00;93197.38;5070846;28;19962;-80
2023/01/05 02:44:49;;;;;;;;;;;;;;;4.20;100.00;93197.16;5076935;28;19983;-81
2023/01/05 02:47:24;;;;;;;;;;;;;;;4.19;100.00;93201.56;5083730;28;19920;-80
2023/01/05 02:50:22;;;;;;;;;;;;;;;4.18;100.00;93192.97;5067742;28;19913;-80
2023/01/05 02:53:12;;;;;;;;;;;;;;;4.16;100.00;93187.22;5056425;28;19912;-80
2023/01/05 02:55:42;;;;;;;;;;;;;;;4.17;100.00;93177.66;5065794;28;19912;-81
2023/01/05 02:58:11;;;;;;;;;;;;;;;4.17;100.00;93173.28;5077403;28;20348;-80
2023/01/05 03:00:41;;;;;;;;;;;;;;;4.17;100.00;93173.28;5075195;28;19926;-81
2023/01/05 03:03:11;;;;;;;;;;;;;;;4.18;100.00;93161.09;5077335;28;19916;-81
2023/01/05 03:05:45;;;;;;;;;;;;;;;4.17;100.00;93157.72;5076917;28;19996;-80
2023/01/05 03:08:20;;;;;;;;;;;;;;;4.17;100.00;93157.72;5076759;28;19956;-80
2023/01/05 03:13:59;;;;;;;;;;;;;;;4.17;100.00;93143.97;5056034;28;20002;-80
2023/01/05 03:16:32;;;;;;;;;;;;;;;4.15;100.00;93138.25;5063364;28;19958;-80
2023/01/05 03:35:38;;;;;;;;;;;;;;;4.01;100.00;93135.13;5079706;28;20005;-80
2023/01/05 03:38:04;;;;;;;;;;;;;;;4.01;100.00;93142.09;5079286;28;20297;-81
2023/01/05 03:40:33;;;;;;;;;;;;;;;3.97;100.00;93137.38;5055183;28;19959;-80
2023/01/05 03:42:59;;;;;;;;;;;;;;;3.97;100.00;93137.38;5077257;28;20007;-80
2023/01/05 03:45:31;;;;;;;;;;;;;;;3.96;100.00;93135.81;5076391;28;19915;-80
2023/01/05 03:47:56;;;;;;;;;;;;;;;3.94;100.00;93137.84;5087570;28;19961;-80
2023/01/05 03:50:26;;;;;;;;;;;;;;;3.92;100.00;93118.38;5049707;28;20275;-80
2023/01/05 03:52:51;;;;;;;;;;;;;;;3.92;100.00;93123.56;5076723;28;19919;-80
2023/01/05 03:55:17;;;;;;;;;;;;;;;3.92;100.00;93124.34;5077858;28;20381;-80
2023/01/05 03:57:43;;;;;;;;;;;;;;;3.94;100.00;93121.50;5075906;28;19920;-80
2023/01/05 04:00:09;;;;;;;;;;;;;;;3.93;100.00;93119.94;5085308;28;19920;-79
2023/01/05 04:02:43;;;;;;;;;;;;;;;3.92;100.00;93119.16;5076605;28;20420;-81
2023/01/05 04:05:09;;;;;;;;;;;;;;;3.91;100.00;93119.38;5079057;28;19980;-81
2023/01/05 04:07:36;;;;;;;;;;;;;;;3.89;100.00;93124.00;5079238;28;20313;-80
2023/01/05 04:10:02;;;;;;;;;;;;;;;3.90;100.00;93115.22;5070144;28;19912;-80
2023/01/05 04:12:28;;;;;;;;;;;;;;;3.89;100.00;93116.22;5041770;28;19943;-80
2023/01/05 04:14:54;;;;;;;;;;;;;;;3.88;100.00;93107.66;5042231;28;19943;-81
2023/01/05 04:17:20;;;;;;;;;;;;;;;3.88;100.00;93097.31;5064940;28;19912;-80
2023/01/05 04:19:46;;;;;;;;;;;;;;;3.86;100.00;93098.56;5077142;28;19942;-80
2023/01/05 04:22:12;;;;;;;;;;;;;;;3.84;100.00;93101.38;5076057;28;20324;-80
2023/01/05 04:24:38;;;;;;;;;;;;;;;3.82;100.00;93107.78;5077511;28;19920;-80
2023/01/05 04:27:03;;;;;;;;;;;;;;;3.80;100.00;93110.59;5077769;28;19947;-80
2023/01/05 04:29:29;;;;;;;;;;;;;;;3.81;100.00;93114.00;5096431;28;19916;-80
2023/01/05 04:31:54;;;;;;;;;;;;;;;3.82;100.00;93107.78;5093737;28;19976;-80
2023/01/05 04:34:20;;;;;;;;;;;;;;;3.83;100.00;93101.59;5077848;28;19912;-80
2023/01/05 04:36:48;;;;;;;;;;;;;;;3.83;100.00;93099.00;5078221;28;19916;-80
2023/01/05 04:39:16;;;;;;;;;;;;;;;3.83;100.00;93107.59;5061250;28;19920;-80
2023/01/05 04:41:42;;;;;;;;;;;;;;;3.81;100.00;93096.66;5077465;28;19961;-80
2023/01/05 04:44:08;;;;;;;;;;;;;;;3.81;100.00;93096.66;5058157;28;19916;-81
2023/01/05 04:46:34;;;;;;;;;;;;;;;3.81;100.00;93093.28;5070735;28;20328;-81
2023/01/05 04:49:00;;;;;;;;;;;;;;;3.80;100.00;93089.09;5077816;28;20293;-80
2023/01/05 04:51:27;;;;;;;;;;;;;;;3.77;100.00;93092.16;5076544;28;19924;-80
2023/01/05 04:53:52;;;;;;;;;;;;;;;3.74;100.00;93090.81;5057971;28;19917;-80
2023/01/05 04:56:21;;;;;;;;;;;;;;;3.69;100.00;93082.94;5054318;28;20437;-81
2023/01/05 04:58:47;;;;;;;;;;;;;;;3.76;100.00;93088.78;5072962;28;19943;-80
2023/01/05 05:01:13;;;;;;;;;;;;;;;3.77;100.00;93092.94;5054651;28;20410;-80
2023/01/05 05:03:40;;;;;;;;;;;;;;;3.79;100.00;93093.50;5069261;28;19958;-80
2023/01/05 05:06:09;;;;;;;;;;;;;;;3.79;100.00;93085.75;5069987;28;20121;-80
2023/01/05 05:08:34;;;;;;;;;;;;;;;3.79;100.00;93083.16;5074671;28;19912;-79
2023/01/05 05:11:02;;;;;;;;;;;;;;;3.79;100.00;93083.16;5094971;28;19920;-80
2023/01/05 05:13:30;;;;;;;;;;;;;;;3.80;100.00;93078.75;5076879;28;19987;-80
2023/01/05 05:15:56;;;;;;;;;;;;;;;3.80;100.00;93089.88;5070312;28;19965;-80
2023/01/05 05:18:23;;;;;;;;;;;;;;;3.80;100.00;93095.06;5077246;28;19920;-80
2023/01/05 05:20:50;;;;;;;;;;;;;;;3.79;100.00;93087.53;5077666;28;19923;-81
2023/01/05 05:23:16;;;;;;;;;;;;;;;3.77;100.00;93084.41;5066382;28;20366;-84
2023/01/05 05:25:42;;;;;;;;;;;;;;;3.76;100.00;93081.03;5064413;28;19913;-84
2023/01/05 05:28:08;;;;;;;;;;;;;;;3.75;100.00;93077.63;5060818;28;19911;-83
2023/01/05 05:30:33;;;;;;;;;;;;;;;3.74;100.00;93070.88;5087280;28;19959;-84
2023/01/05 05:32:59;;;;;;;;;;;;;;;3.76;100.00;93075.84;5088497;28;20312;-84
2023/01/05 05:35:24;;;;;;;;;;;;;;;3.78;100.00;93078.97;5047732;28;19916;-84
2023/01/05 05:37:50;;;;;;;;;;;;;;;3.79;100.00;93079.78;5074959;28;19912;-84
2023/01/05 05:40:15;;;;;;;;;;;;;;;3.75;100.00;93077.63;5057697;28;19920;-83
2023/01/05 05:42:41;;;;;;;;;;;;;;;3.76;100.00;93075.84;5093370;28;19966;-83
2023/01/05 05:45:06;;;;;;;;;;;;;;;3.74;100.00;93070.88;5088966;28;20447;-82
2023/01/05 05:47:32;;;;;;;;;;;;;;;3.74;100.00;93075.28;5093118;28;19912;-82
2023/01/05 05:49:57;;;;;;;;;;;;;;;3.74;100.00;93072.69;5095560;28;19931;-83
2023/01/05 05:52:23;;;;;;;;;;;;;;;3.75;100.00;93074.25;5077639;28;19949;-83
2023/01/05 05:54:48;;;;;;;;;;;;;;;3.75;100.00;93066.50;5078528;28;20285;-83
2023/01/05 05:57:14;;;;;;;;;;;;;;;3.77;100.00;93069.63;5069418;28;19982;-83
2023/01/05 05:59:39;;;;;;;;;;;;;;;3.78;100.00;93071.19;5093941;28;19919;-84
2023/01/05 06:02:04;;;;;;;;;;;;;;;3.76;100.00;93068.09;5077324;28;20002;-84
2023/01/05 06:04:30;;;;;;;;;;;;;;;3.74;100.00;93076.06;5095929;28;19919;-83
2023/01/05 06:06:55;;;;;;;;;;;;;;;3.72;100.00;93070.34;5087691;28;19916;-83
2023/01/05 06:09:21;;;;;;;;;;;;;;;3.74;100.00;93064.94;5095378;28;19947;-83
2023/01/05 06:11:46;;;;;;;;;;;;;;;3.74;100.00;93070.88;5095962;28;20261;-84
2023/01/05 06:14:12;;;;;;;;;;;;;;;3.74;100.00;93075.28;5090250;28;19917;-84
2023/01/05 06:16:37;;;;;;;;;;;;;;;3.74;100.00;93075.28;5092326;28;19919;-83
2023/01/05 06:19:02;;;;;;;;;;;;;;;3.74;100.00;93067.53;5095108;28;19927;-83
2023/01/05 06:21:28;;;;;;;;;;;;;;;3.73;100.00;93068.53;5095804;28;19912;-84
2023/01/05 06:23:54;;;;;;;;;;;;;;;3.73;100.00;93065.94;5073742;28;20057;-82
2023/01/05 06:26:19;;;;;;;;;;;;;;;3.73;100.00;93066.72;5076768;28;19931;-82
2023/01/05 06:28:45;;;;;;;;;;;;;;;3.72;100.00;93067.75;5095756;28;19916;-82
2023/01/05 06:31:10;;;;;;;;;;;;;;;3.78;100.00;93070.41;5078048;28;19919;-83
2023/01/05 06:33:37;;;;;;;;;;;;;;;3.86;100.00;93077.84;5095383;28;20360;-83
2023/01/05 06:36:03;;;;;;;;;;;;;;;3.91;100.00;93083.09;5095301;28;19916;-84
2023/01/05 06:38:29;;;;;;;;;;;;;;;3.90;100.00;93076.38;5089022;28;19927;-83
2023/01/05 06:40:54;;;;;;;;;;;;;;;3.87;100.00;93082.81;5095461;28;19920;-83
2023/01/05 06:43:20;;;;;;;;;;;;;;;3.85;100.00;93077.06;5074623;28;19916;-83
2023/01/05 06:45:45;;;;;;;;;;;;;;;3.84;100.00;93070.28;5075753;28;19916;-83
2023/01/05 06:48:10;;;;;;;;;;;;;;;3.82;100.00;93072.31;5076688;28;20370;-83
2023/01/05 06:50:36;;;;;;;;;;;;;;;3.82;100.00;93067.13;5095780;28;20141;-84
2023/01/05 06:53:02;;;;;;;;;;;;;;;3.84;100.00;93072.88;5099147;28;19912;-84
2023/01/05 06:55:27;;;;;;;;;;;;;;;3.84;100.00;93062.53;5065101;28;19956;-83
2023/01/05 06:57:53;;;;;;;;;;;;;;;3.92;100.00;93067.34;5097732;28;19916;-83
2023/01/05 07:00:18;;;;;;;;;;;;;;;3.94;100.00;93072.28;5096043;28;19926;-82
2023/01/05 07:02:44;;;;;;;;;;;;;;;3.93;100.00;93074.09;5102502;28;20133;-83
2023/01/05 07:05:09;;;;;;;;;;;;;;;3.93;100.00;93065.53;5075323;28;19916;-83
2023/01/05 07:07:34;;;;;;;;;;;;;;;3.91;100.00;93070.94;5094118;28;19918;-84
2023/01/05 07:10:00;;;;;;;;;;;;;;;3.89;100.00;93067.78;5077714;28;20226;-83
2023/01/05 07:12:26;;;;;;;;;;;;;;;3.90;100.00;93074.56;5102573;28;19912;-83
2023/01/05 07:14:51;;;;;;;;;;;;;;;3.91;100.00;93070.94;5081016;28;19950;-83
2023/01/05 07:17:17;;;;;;;;;;;;;;;4.00;100.00;93068.00;5096396;28;19923;-83
2023/01/05 07:19:43;;;;;;;;;;;;;;;4.09;100.00;93076.97;5100875;28;19923;-83
2023/01/05 07:22:08;;;;;;;;;;;;;;;4.14;100.00;93077.88;5092855;28;19969;-83
2023/01/05 07:24:34;;;;;;;;;;;;;;;4.20;100.00;93075.34;5101362;28;19919;-83
2023/01/05 07:27:00;;;;;;;;;;;;;;;4.25;100.00;93063.25;5039995;28;19913;-83
2023/01/05 07:29:25;;;;;;;;;;;;;;;4.37;100.00;93061.41;5081312;28;19911;-82
2023/01/05 07:31:53;;;;;;;;;;;;;;;4.49;100.00;93060.56;5101895;28;19916;-83
2023/01/05 07:34:19;;;;;;;;;;;;;;;4.73;100.00;93067.19;5097249;28;19950;-83
2023/01/05 07:36:48;;;;;;;;;;;;;;;5.28;100.00;93065.63;5098891;28;19912;-80
2023/01/05 07:39:13;;;;;;;;;;;;;;;6.16;100.00;93064.91;5094344;28;19923;-80
2023/01/05 07:41:39;;;;;;;;;;;;;;;7.16;100.00;93070.47;5071437;28;19916;-80
2023/01/05 07:44:05;;;;;;;;;;;;;;;7.72;100.00;93067.38;5117600;28;19992;-80
2023/01/05 07:46:30;;;;;;;;;;;;;;;7.76;100.00;93059.84;5101829;28;19908;-80
2023/01/05 07:48:56;;;;;;;;;;;;;;;7.93;100.00;93057.81;5093929;28;19920;-80
2023/01/05 07:51:21;;;;;;;;;;;;;;;7.91;100.00;93054.69;5078445;28;19962;-80
2023/01/05 07:53:47;;;;;;;;;;;;;;;8.00;100.00;93058.38;5099431;28;19995;-80
2023/01/05 07:56:12;;;;;;;;;;;;;;;7.84;99.53;93061.97;5097990;28;19912;-80
2023/01/05 07:58:38;;;;;;;;;;;;;;;7.84;100.00;93065.34;5093191;28;20010;-80
2023/01/05 08:01:04;;;;;;;;;;;;;;;7.76;100.00;93068.44;5097163;28;19923;-80
2023/01/05 08:03:30;;;;;;;;;;;;;;;7.65;98.94;93066.81;5094242;28;20020;-80
2023/01/05 08:05:55;;;;;;;;;;;;;;;7.68;100.00;93058.50;5095855;28;20366;-80
2023/01/05 08:08:21;;;;;;;;;;;;;;;7.55;100.00;93057.13;5081548;28;19965;-82
2023/01/05 08:10:46;;;;;;;;;;;;;;;7.43;100.00;93064.34;5090444;28;19920;-83
2023/01/05 08:15:56;;;;;;;;;;;;;;;7.14;100.00;93062.09;5086116;28;19934;-81
2023/01/05 08:18:22;;;;;;;;;;;;;;;7.03;100.00;93068.28;5088905;28;20361;-81
2023/01/05 08:20:55;;;;;;;;;;;;;;;6.97;100.00;93066.66;5085626;28;19967;-83
2023/01/05 08:23:23;;;;;;;;;;;;;;;6.87;100.00;93062.97;5117362;28;20312;-81
2023/01/05 08:25:48;;;;;;;;;;;;;;;6.81;100.00;93052.75;5098992;28;19919;-81
2023/01/05 08:28:13;;;;;;;;;;;;;;;6.77;100.00;93057.66;5104000;28;20125;-82
2023/01/05 08:30:39;;;;;;;;;;;;;;;6.75;100.00;93056.34;5114399;28;19916;-82
2023/01/05 08:33:04;;;;;;;;;;;;;;;6.72;100.00;93065.44;5109635;28;19916;-81
2023/01/05 08:35:30;;;;;;;;;;;;;;;6.70;100.00;93059.69;5099690;28;20453;-83
2023/01/05 08:37:55;;;;;;;;;;;;;;;6.66;100.00;93067.22;5080560;28;19991;-82
2023/01/05 08:40:21;;;;;;;;;;;;;;;6.67;100.00;93063.56;5102931;28;19911;-82
2023/01/05 08:42:47;;;;;;;;;;;;;;;6.65;100.00;93057.06;5070065;28;19924;-80
2023/01/05 08:45:16;;;;;;;;;;;;;;;6.66;100.00;93058.59;5064492;28;19916;-80
2023/01/05 08:47:41;;;;;;;;;;;;;;;6.71;100.00;93055.25;5096769;28;19941;-80
2023/01/05 08:50:08;;;;;;;;;;;;;;;6.72;100.00;93060.22;5071178;28;20531;-79
2023/01/05 08:52:34;;;;;;;;;;;;;;;6.71;100.00;93061.28;5094859;28;19979;-80
2023/01/05 08:54:59;;;;;;;;;;;;;;;6.71;100.00;93063.88;5103917;28;20536;-81
2023/01/05 08:57:25;;;;;;;;;;;;;;;6.74;100.00;93065.97;5063247;28;19916;-80
2023/01/05 08:59:50;;;;;;;;;;;;;;;6.77;100.00;93070.66;5098608;28;19924;-80
2023/01/05 09:02:16;;;;;;;;;;;;;;;6.79;100.00;93060.81;5088580;28;20370;-80
2023/01/05 09:04:41;;;;;;;;;;;;;;;6.81;100.00;93053.53;5101880;28;19954;-81
2023/01/05 09:07:06;;;;;;;;;;;;;;;6.86;100.00;93058.78;5103605;28;20011;-80
2023/01/05 09:09:32;;;;;;;;;;;;;;;6.92;100.00;93070.00;5108513;28;19915;-81
2023/01/05 09:11:57;;;;;;;;;;;;;;;7.00;100.00;93061.75;5093135;28;19930;-80
2023/01/05 09:14:23;;;;;;;;;;;;;;;7.04;100.00;93056.81;5092868;28;20388;-81
2023/01/05 09:16:48;;;;;;;;;;;;;;;7.08;100.00;93058.66;5096588;28;20066;-80
2023/01/05 09:19:14;;;;;;;;;;;;;;;7.13;100.00;93064.97;5100633;28;19920;-79
2023/01/05 09:21:39;;;;;;;;;;;;;;;7.14;100.00;93067.31;5110841;28;19919;-80
2023/01/05 09:24:06;;;;;;;;;;;;;;;7.20;100.00;93068.13;5096212;28;19923;-81
2023/01/05 09:26:32;;;;;;;;;;;;;;;7.19;100.00;93077.75;5068289;28;19920;-80
2023/01/05 09:28:58;;;;;;;;;;;;;;;7.24;100.00;93080.38;5094397;28;19923;-81
2023/01/05 09:31:23;;;;;;;;;;;;;;;7.27;100.00;93077.31;5086182;28;19916;-80
2023/01/05 09:33:50;;;;;;;;;;;;;;;7.29;100.00;93077.84;5094047;28;19921;-81
2023/01/05 09:36:16;;;;;;;;;;;;;;;7.34;100.00;93077.09;5077971;28;19911;-80
2023/01/05 09:38:42;;;;;;;;;;;;;;;7.37;100.00;93073.97;5098874;28;19916;-82
2023/01/05 09:41:19;;;;;;;;;;;;;;;7.41;100.00;93077.66;5088163;28;19993;-81
2023/01/05 09:43:46;;;;;;;;;;;;;;;7.40;100.00;93076.06;5093774;28;19919;-81
2023/01/05 09:46:20;;;;;;;;;;;;;;;7.46;100.00;93069.06;5097172;28;20605;-80
2023/01/05 09:48:48;;;;;;;;;;;;;;;7.55;100.00;93077.19;5101516;28;19912;-81
2023/01/05 09:51:14;;;;;;;;;;;;;;;7.58;100.00;93068.88;5094398;28;19912;-81
2023/01/05 09:53:39;;;;;;;;;;;;;;;7.65;100.00;93074.63;5094109;28;19926;-81
2023/01/05 09:56:10;;;;;;;;;;;;;;;7.74;100.00;93073.13;5079281;28;20343;-81
2023/01/05 09:58:39;;;;;;;;;;;;;;;7.79;100.00;93067.94;5096585;28;20317;-80
2023/01/05 10:01:05;;;;;;;;;;;;;;;7.87;100.00;93071.88;5076573;28;19932;-81
2023/01/05 10:03:31;;;;;;;;;;;;;;;7.92;100.00;93066.66;5097883;28;20034;-81
2023/01/05 10:05:57;;;;;;;;;;;;;;;7.97;100.00;93064.09;5087365;28;19931;-80
2023/01/05 10:08:39;;;;;;;;;;;;;;;7.97;100.00;93065.91;5088204;28;19920;-80
2023/01/05 10:14:02;;;;;;;;;;;;;;;8.16;100.00;93063.63;5092518;28;19937;-81
2023/01/05 10:16:27;;;;;;;;;;;;;;;8.29;100.00;93050.88;5098999;28;19916;-80
2023/01/05 10:18:53;;;;;;;;;;;;;;;8.38;99.16;93048.56;5084960;28;20145;-81
2023/01/05 10:21:37;;;;;;;;;;;;;;;8.50;96.73;93051.72;5109883;28;19926;-80
2023/01/05 10:24:32;;;;;;;;;;;;;;;8.64;95.58;93043.41;5092907;28;19919;-81
2023/01/05 10:27:07;;;;;;;;;;;;;;;8.79;92.91;93043.41;5009321;28;20004;-81
2023/01/05 10:29:35;;;;;;;;;;;;;;;8.88;94.37;93038.47;5077413;28;20072;-82
2023/01/05 10:32:04;;;;;;;;;;;;;;;8.96;91.58;93036.09;5092647;28;19994;-81
2023/01/05 10:34:35;;;;;;;;;;;;;;;9.03;90.92;93045.47;5099796;28;19950;-80
2023/01/05 10:37:11;;;;;;;;;;;;;;;9.11;93.79;93034.50;5097276;28;19912;-80
2023/01/05 10:39:37;;;;;;;;;;;;;;;9.21;96.07;93034.53;5091173;28;19927;-80
2023/01/05 10:42:17;;;;;;;;;;;;;;;9.41;92.42;93022.44;5099550;28;19920;-81
2023/01/05 10:44:45;;;;;;;;;;;;;;;9.54;94.75;93029.72;5079568;28;19915;-81
2023/01/05 10:47:11;;;;;;;;;;;;;;;9.63;90.19;93025.53;5088670;28;19939;-82
2023/01/05 10:49:39;;;;;;;;;;;;;;;9.70;91.82;93023.41;5090807;28;19916;-81
2023/01/05 10:52:08;;;;;;;;;;;;;;;9.79;92.09;93019.22;5094352;28;19960;-81
2023/01/05 10:54:42;;;;;;;;;;;;;;;9.90;90.91;93025.16;5089987;28;19923;-82
2023/01/05 10:57:26;;;;;;;;;;;;;;;10.01;92.27;93023.28;5089828;28;20377;-82
2023/01/05 11:00:11;;;;;;;;;;;;;;;10.13;91.44;93015.91;5100754;28;20366;-82
2023/01/05 11:02:38;;;;;;;;;;;;;;;10.20;90.84;93019.00;5096486;28;19993;-82
2023/01/05 11:05:06;;;;;;;;;;;;;;;10.29;91.54;93011.41;5096917;28;19919;-81
2023/01/05 11:07:31;;;;;;;;;;;;;;;10.43;90.08;93016.03;5099966;28;20373;-80
2023/01/05 11:09:57;;;;;;;;;;;;;;;10.58;88.03;93024.56;5082681;28;19988;-81
2023/01/05 11:12:24;;;;;;;;;;;;;;;10.72;89.48;93016.09;5075237;28;19939;-81
2023/01/05 11:14:53;;;;;;;;;;;;;;;10.93;90.40;93017.50;5098971;28;20330;-81
2023/01/05 11:17:20;;;;;;;;;;;;;;;11.13;88.47;93007.91;5063987;28;19920;-81
2023/01/05 11:19:54;;;;;;;;;;;;;;;11.33;82.23;93001.69;5080505;28;19909;-82
2023/01/05 11:22:27;;;;;;;;;;;;;;;11.41;81.58;92999.22;5095381;28;19906;-81
2023/01/05 11:24:52;;;;;;;;;;;;;;;11.51;82.39;93002.81;5098102;28;19919;-82
2023/01/05 11:27:24;;;;;;;;;;;;;;;11.73;86.70;92995.22;5076277;28;20435;-83
2023/01/05 11:30:08;;;;;;;;;;;;;;;11.87;85.23;92993.50;5092412;28;20651;-83
2023/01/05 11:32:33;;;;;;;;;;;;;;;11.88;87.37;92989.81;5090127;28;20010;-82
2023/01/05 11:34:59;;;;;;;;;;;;;;;11.91;89.10;92985.84;5069801;28;19924;-82
2023/01/05 11:37:25;;;;;;;;;;;;;;;12.02;90.72;92989.13;5095121;28;20019;-83
2023/01/05 11:39:53;;;;;;;;;;;;;;;12.23;90.88;92987.78;5081985;28;19962;-82
2023/01/05 11:42:26;;;;;;;;;;;;;;;12.13;74.30;92987.91;5098046;28;19954;-80
2023/01/05 11:44:52;;;;;;;;;;;;;;;12.02;68.18;92979.41;5082904;28;19915;-83
2023/01/05 11:47:20;;;;;;;;;;;;;;;11.97;72.38;92986.56;5098395;28;19923;-82
2023/01/05 11:49:46;;;;;;;;;;;;;;;11.95;74.08;92971.09;5096340;28;19962;-82
2023/01/05 11:52:25;;;;;;;;;;;;;;;11.95;75.51;92976.34;5097737;28;19916;-81
2023/01/05 11:54:51;;;;;;;;;;;;;;;12.11;72.69;92976.91;5080210;28;19912;-80
2023/01/05 11:57:17;;;;;;;;;;;;;;;12.09;73.54;92968.53;5098175;28;20282;-81
2023/01/05 11:59:44;;;;;;;;;;;;;;;12.26;73.13;92966.22;5104023;28;19916;-81
2023/01/05 12:02:10;;;;;;;;;;;;;;;12.17;74.24;92972.41;5101760;28;20185;-81
2023/01/05 12:05:00;;;;;;;;;;;;;;;12.16;76.36;92962.94;5088449;28;19919;-81
2023/01/05 12:07:36;;;;;;;;;;;;;;;12.26;78.31;92962.81;5098535;28;19981;-80
2023/01/05 12:10:04;;;;;;;;;;;;;;;12.33;73.72;92960.59;5104620;28;20371;-80
2023/01/05 12:13:05;;;;;;;;;;;;;;;12.29;75.95;92955.16;5094553;28;19916;-80
2023/01/05 12:15:41;;;;;;;;;;;;;;;12.45;79.76;92962.78;5014287;28;20025;-80
2023/01/05 12:18:17;;;;;;;;;;;;;;;12.52;73.03;92952.72;5084988;28;19915;-80
2023/01/05 12:20:45;;;;;;;;;;;;;;;12.71;76.28;92955.31;5095360;28;19965;-80
2023/01/05 12:23:22;;;;;;;;;;;;;;;12.73;74.69;92962.91;5079581;28;20163;-81
2023/01/05 12:25:47;;;;;;;;;;;;;;;12.90;75.35;92953.44;5098519;28;20005;-81
2023/01/05 12:28:13;;;;;;;;;;;;;;;13.21;72.98;92941.59;5101782;28;20328;-81
2023/01/05 12:30:50;;;;;;;;;;;;;;;13.61;60.23;92940.09;5098315;28;19962;-80
2023/01/05 12:33:28;;;;;;;;;;;;;;;14.08;59.65;92948.59;5096385;28;20409;-80
2023/01/05 12:36:10;;;;;;;;;;;;;;;14.29;56.00;92948.16;5113258;28;19944;-81
2023/01/05 12:38:38;;;;;;;;;;;;;;;14.27;65.59;92951.06;5091314;28;19923;-80
2023/01/05 12:41:10;;;;;;;;;;;;;;;13.99;66.73;92950.38;5098951;28;20023;-80
2023/01/05 12:43:54;;;;;;;;;;;;;;;13.74;66.70;92941.16;5063345;28;19998;-80
2023/01/05 12:46:23;;;;;;;;;;;;;;;13.55;68.91;92949.13;5074266;28;19912;-80
2023/01/05 12:48:58;;;;;;;;;;;;;;;13.41;66.65;92946.50;5083692;28;19913;-80
2023/01/05 12:51:33;;;;;;;;;;;;;;;13.25;70.18;92934.69;5082099;28;19912;-80
2023/01/05 12:54:09;;;;;;;;;;;;;;;13.30;70.88;92926.72;5094684;28;20427;-80
2023/01/05 12:56:56;;;;;;;;;;;;;;;13.45;59.88;92934.34;5084922;28;19916;-81
2023/01/05 12:59:22;;;;;;;;;;;;;;;13.63;63.67;92937.16;5091406;28;19922;-80
2023/01/05 13:02:13;;;;;;;;;;;;;;;13.86;50.85;92933.53;5096208;28;19919;-83
2023/01/05 13:04:52;;;;;;;;;;;;;;;14.10;48.17;92930.66;5061303;28;19959;-80
2023/01/05 13:07:24;;;;;;;;;;;;;;;14.33;45.01;92923.56;5088789;28;19962;-81
2023/01/05 13:09:56;;;;;;;;;;;;;;;14.31;59.18;92930.19;5093253;28;20006;-80
2023/01/05 13:12:21;;;;;;;;;;;;;;;14.28;59.77;92926.31;5099462;28;19987;-80
2023/01/05 13:15:02;;;;;;;;;;;;;;;14.00;58.87;92924.81;5092951;28;19993;-80
2023/01/05 13:17:31;;;;;;;;;;;;;;;13.75;59.88;92924.28;5093772;28;19916;-79
2023/01/05 13:20:02;;;;;;;;;;;;;;;13.58;56.04;92934.63;5107094;28;19915;-80
2023/01/05 13:22:31;;;;;;;;;;;;;;;13.53;56.72;92928.41;5093803;28;20004;-79
2023/01/05 13:25:01;;;;;;;;;;;;;;;13.63;56.68;92929.28;5082991;28;19923;-80
2023/01/05 13:27:28;;;;;;;;;;;;;;;13.79;56.17;92932.38;5100165;28;19922;-81
2023/01/05 13:29:58;;;;;;;;;;;;;;;13.93;54.43;92926.00;5102733;28;19915;-80